2017 Ballard Cup Series II
Jun 19, 2017

Sloop Tavern Yacht Club


PRELIMINARY

Committee Boat - Teaser

Race 3


R1 R2 R3 R4 R5 Series Overall

Class: 1 NFS - Start: 18:15:00 - Course: NBMB - Distance: 4.064      

Boat Name SailNo Boat Type Skipper Rating Club Start Finish Elapsed Corrected BCE Place OA
Blue Lullaby 391 NEWP28-2 John H Endresen 231 STYC 18:15:00 20:01:42 1:46:42 1:31:03 0:00:00 1 42
Figaro 7784 Ericson 39 Pete Serafin 159 STYC 18:15:00 20:03:54 1:48:54 1:38:08 0:07:05 2 44
Billabong 4200 Lancer 36 Robert Kirkman 147 STYC 18:15:00 20:10:31 1:55:31 1:45:34 0:14:31 3 45
Boadicea 0 Ericson 32-3 Simon J. ffitch 192 STYC 18:15:00 DNF 4 47
Frog Prints 79070 DUFR D34 Tim Onders 192 STYC 18:15:00 DNF 4 47
Grazia 570 Etchels Marshall Jett 135 STYC 18:15:00 DNF 4 47
Anarchy USA 11 FT 10 Tom Ward 108 STYC 18:15:00 DNC 5 48
Tangent 115 Hunter 34 Charlie O'Hern 174 STYC 18:15:00 DNC 5 48

Class: 2 FS - Start: 18:20:00 - Course: NBMB - Distance: 4.064      

Boat Name SailNo Boat Type Skipper Rating Club Start Finish Elapsed Corrected BCE Place OA
Moonshine 27696 YANK30-1 Kirk/Jen Fraser 192 STYC 18:20:00 19:46:54 1:26:54 1:13:54 0:00:00 1 26
Rock Lobster 59306 San Juan 7.7 Trent Piepho 210 STYC 18:20:00 19:50:44 1:30:44 1:16:31 0:02:37 2 32
Water Street 1376 Cal 2-24 Mark Jackson 252 STYC 18:20:00 20:04:59 1:44:59 1:27:55 0:14:01 3 39
Miss Mayhem 422 San Juan 24 Melissa Davies 228 STYC 18:20:00 20:05:45 1:45:45 1:30:18 0:16:24 4 40
Lady Too 59382 San Jaun 28 Damon Darley 204 STYC 18:20:00 20:04:35 1:44:35 1:30:46 0:16:52 5 41
Wavelength 49922 Ranger 29 Eric Dunkel 198 STYC 18:20:00 DNF 6 47
Aquavit 3242 Interational Folkboat David Sinson 285 STYC 18:20:00 DNC 7 48

Class: 3 FS - Start: 18:25:00 - Course: NBMB - Distance: 4.064      

Boat Name SailNo Boat Type Skipper Rating Club Start Finish Elapsed Corrected BCE Place OA
More Uff Da 26 Moore 24 Ben Braden 168 STYC 18:25:00 19:41:59 1:16:59 1:05:36 0:00:00 1 8
LA Lucha Moore 131 Moore 24 Joe Grieser 168 STYC 18:25:00 19:45:14 1:20:14 1:08:51 0:03:15 2 13
Zap 59269 ZAP26 Don Sarin 147 STYC 18:25:00 19:44:52 1:19:52 1:09:55 0:04:19 3 18
Shazam 42269 Santa Cruz 27 Robert Tollenaar 156 STYC 18:25:00 19:46:40 1:21:40 1:11:06 0:05:30 4 21
Perfectly Strange 87210 POCK22-1 Paul Kalina 174 STYC 18:25:00 19:51:23 1:26:23 1:14:36 0:09:00 5 31
The Banana Stand 104 Santa Cruz 27 Adam Yuret 162 STYC 18:25:00 19:53:32 1:28:32 1:17:34 0:11:58 6 33
Flyer 5354 J/24 Scott Galbraith 186 STYC 18:25:00 20:00:37 1:35:37 1:23:01 0:17:25 7 36
Plane Crazy 4000 J/24 Jim Swanson 186 SSC 18:25:00 20:10:13 1:45:13 1:32:37 0:27:01 8 43
Midnight Escape 28206 Kirby 25 Borge Ellingsen 186 STYC 18:25:00 DNC 10 48
Three Ring Circus 37 OLSN25-1 Nate Creitz 174 STYC 18:25:00 DNC 10 48

Class: 4 FS - Start: 18:30:00 - Course: NBMB - Distance: 4.064      

Boat Name SailNo Boat Type Skipper Rating Club Start Finish Elapsed Corrected BCE Place OA
Velella 150 Wylie 31 Ryan Helling 165 STYC 18:30:00 19:52:06 1:22:06 1:10:55 0:00:00 1 19
Whistling Swan 69494 ISLA36-1 Bill Pirrie 156 STYC 18:30:00 19:52:02 1:22:02 1:11:28 0:00:33 2 22
Grayling 7 Q-Class Duke H Phan 144 STYC 18:30:00 19:54:15 1:24:15 1:14:30 0:03:35 3 30
Celtic Breeze 233 Ericson 35 MK3 Glenn Knitter 159 STYC 18:30:00 20:00:26 1:30:26 1:19:40 0:08:45 4 35
Airloom 69410 BABA40-2 Tim Morgenroth 165 STYC 18:30:00 20:04:30 1:34:30 1:23:19 0:12:24 5 37
Sea Trek II 69326 Catalina 34 Tom Madden 171 SBYC 18:30:00 20:07:11 1:37:11 1:25:36 0:14:41 6 38
Kamoon NA Jeanneau Sun Odyssey 36.2 Mike Taft 162 STYC 18:30:00 DNF 7 47
Teaser 20015 Cal 33 Kirk Utter 153 STYC 18:30:00 CB 8 48

Class: 5 FS - Start: 18:35:00 - Course: NBMB - Distance: 4.064      

Boat Name SailNo Boat Type Skipper Rating Club Start Finish Elapsed Corrected BCE Place OA
Here & Now 31834 J/29 M Pat Denney 120 STYC 18:35:00 19:46:21 1:11:21 1:03:13 0:00:00 1 4
Muffin 18660 SANZ33-1 Garry M Greth 117 STYC 18:35:00 19:46:21 1:11:21 1:03:26 0:00:13 2 5
Outlaw 77108 J/30 Cindy Gossett 138 STYC 18:35:00 19:50:25 1:15:25 1:06:04 0:02:51 3 9
Wings 244 J/29 Laurie Anna Kaplan 120 CYC 18:35:00 19:50:47 1:15:47 1:07:39 0:04:26 4 11
eXaltona 69301 X102 Brad 120 none 18:35:00 19:52:27 1:17:27 1:09:19 0:06:06 5 16
Ruby 87603 J/29 M John Kazaras 120 STYC 18:35:00 19:55:16 1:20:16 1:12:08 0:08:55 6 24
Latitude 66080 Jeanneau 409 Bill Gibson 93 STYC 18:35:00 19:55:16 1:20:16 1:13:58 0:10:45 7 27
Shadowfax 69900 J/35c David Jade 117 CYC 18:35:00 OCS 8 47
Kowloon 17 OLSN911 Ken Chin 129 STYC 18:35:00 DNC 9 48
Poisson Soluble 69351 Hobie 33 Robert Horsley 96 STYC 18:35:00 DNC 9 48

Class: 6 FS - Start: 18:40:00 - Course: NBMB - Distance: 4.064      

Boat Name SailNo Boat Type Skipper Rating Club Start Finish Elapsed Corrected BCE Place OA
Crazy Ivan USA-151 J/80 Bryan Rhodes 129 STYC 18:40:00 19:56:09 1:16:09 1:07:25 0:00:00 1 10
Underdog 85 J/80 Weickenmeier/Wieberneit 129 SSC 18:40:00 19:56:55 1:16:55 1:08:11 0:00:46 2 12
Fearful Symmetry 331 J/80 Jacob Kemp 129 SSC 18:40:00 19:57:37 1:17:37 1:08:53 0:01:28 3 14.5
Taj Mahal 445 J/80 John Lueders 129 SSC 18:40:00 19:59:43 1:19:43 1:10:59 0:03:34 4 20
Rush 988 J/80 Saadiah Freeman 129 CYC Seattle 18:40:00 20:01:42 1:21:42 1:12:58 0:05:33 5 25
Jolly Green 1 J/80 Dulnath Wijayratne 129 SSC 18:40:00 20:03:03 1:23:03 1:14:19 0:06:54 6 29
Stellar J 546 J/80 Mark Keilholz 129 SSC 18:40:00 20:08:09 1:28:09 1:19:25 0:12:00 7 34
Namaste 11 J/80 Eric Shankland 129 SSC 18:40:00 20:36:11 1:56:11 1:47:27 0:40:02 8 46

Class: 7 FS - Start: 18:45:00 - Course: NBMB - Distance: 4.064      

Boat Name SailNo Boat Type Skipper Rating Club Start Finish Elapsed Corrected BCE Place OA
Last Tango 212 J/105 Jim Geros 93 STYC 18:45:00 19:53:42 1:08:42 1:02:24 0:00:00 1 2
ReBoot 621 J/105 Moira Delaney 93 SYC 18:45:00 19:56:42 1:11:42 1:05:24 0:03:00 2 7
Corvo 105 475 J/105 Tom Kerr 93 CYC Seattle 18:45:00 20:05:23 1:20:23 1:14:05 0:11:41 3 28
Avalanche 495 J/105 Jeff Pace 93 SSC 18:45:00 DNF 4 47
Puff 115 J/105 Jennifer Harkness 93 SSC 18:45:00 DNF 4 47

Class: 8 FS - Start: 18:50:00 - Course: NBMB - Distance: 4.064      

Boat Name SailNo Boat Type Skipper Rating Club Start Finish Elapsed Corrected BCE Place OA
Those Guys 18155 J/35 Jenny Heins 72 STYC 18:50:00 19:56:23 1:06:23 1:01:30 0:00:00 1 1
Nefarious USA 53 Farr 30 Daniel Randolph 54 STYC 18:50:00 19:56:31 1:06:31 1:02:52 0:01:22 2 3
with Grace 50791 J120 Ken S Jones 57 STYC 18:50:00 19:58:44 1:08:44 1:04:52 0:03:22 3 6
Freda Mae 790030 CORSAIR 31 Vincent DePillis 0 NWMA 18:50:00 19:58:53 1:08:53 1:08:53 0:07:23 4 14.5
Escape 69160 Corsair F-27 Yury Palatnik 79 STYC, NWMA 18:50:00 20:05:05 1:15:05 1:09:44 0:08:14 5 17
re-Quest 18266 Express 37 Alex Wetmore 72 STYC 18:50:00 20:06:55 1:16:55 1:12:02 0:10:32 6 23
Bat Out Of Hell USA55 Farr 30 Lance Staughton 54 STYC 18:50:00 DNC 8 48
Helios 33 Beneteau First 36.7 David James 81 STYC 18:50:00 DNC 8 48
Itzakaya 58 FT 10 Iain Christenson 57 SYC 18:50:00 DNC 8 48
Overtime 79747 X Ross 930 Ed Snyders 87 STYC 18:50:00 DNC 8 48

STYC scoring (20170614_181200 ver)